Time;durP1;ratioP1;P1;durP2;ratioP2;P2;SDS_P1;SDS_P2;PMS_P1;PMS_P2;Temp;Humidity;BMP_temperature;BMP_pressure;BME280_temperature;BME280_humidity;BME280_pressure;Samples;Min_cycle;Max_cycle;Signal;HPM_P1;HPM_P2
2023/10/15 00:02:03;;;;;;;31.85;21.00;;;11.90;99.90;;;;;;6231773;22;20423;-81
2023/10/15 00:05:05;;;;;;;34.80;21.35;;;11.90;99.90;;;;;;6229929;22;20073;-82
2023/10/15 00:08:13;;;;;;;33.50;21.73;;;11.90;99.90;;;;;;6228631;22;20039;-83
2023/10/15 00:11:13;;;;;;;;;;;;;;;;;;;;;
2023/10/15 00:20:41;;;;;;;30.42;21.60;;;11.90;99.90;;;;;;6239360;22;20016;-82
2023/10/15 00:27:14;;;;;;;30.17;20.92;;;11.70;99.90;;;;;;6231171;22;20537;-82
2023/10/15 00:30:39;;;;;;;32.03;21.00;;;11.70;99.90;;;;;;6104075;23;20365;-84
2023/10/15 00:33:56;;;;;;;27.27;19.45;;;11.60;99.90;;;;;;6071617;23;20029;-82
2023/10/15 00:41:00;;;;;;;28.50;17.60;;;11.70;99.90;;;;;;6027599;23;20089;-83
2023/10/15 00:48:27;;;;;;;29.77;19.60;;;11.60;99.90;;;;;;6135635;23;20025;-83
2023/10/15 01:02:22;;;;;;;28.77;16.75;;;11.50;99.90;;;;;;6169608;23;20484;-81
2023/10/15 01:06:13;;;;;;;25.27;16.92;;;11.50;99.90;;;;;;6234046;22;20047;-84
2023/10/15 01:09:27;;;;;;;25.88;16.83;;;11.30;99.90;;;;;;6219939;22;20028;-83
2023/10/15 01:13:17;;;;;;;28.38;15.77;;;11.30;99.90;;;;;;6216487;22;20083;-83
2023/10/15 01:26:51;;;;;;;;;;;;;;;;;;;;;
2023/10/15 03:29:45;;;;;;;;;;;;;;;;;;;;;
2023/10/15 05:32:11;;;;;;;28.27;17.50;;;13.10;99.90;;;;;;5863896;24;20053;-82
2023/10/15 05:42:07;;;;;;;29.38;17.40;;;13.50;99.90;;;;;;6063374;23;20030;-80
2023/10/15 05:45:08;;;;;;;28.63;17.83;;;13.40;99.90;;;;;;6106906;23;20046;-81
2023/10/15 05:48:12;;;;;;;33.53;19.70;;;13.40;99.90;;;;;;6122852;23;20073;-81
2023/10/15 05:54:00;;;;;;;26.45;18.85;;;13.50;99.90;;;;;;6095942;23;20052;-81
2023/10/15 05:56:33;;;;;;;33.63;21.77;;;13.50;99.90;;;;;;6119711;23;20030;-82
2023/10/15 05:59:18;;;;;;;31.77;20.75;;;13.50;99.90;;;;;;6105268;23;20537;-82
2023/10/15 06:02:26;;;;;;;31.30;21.35;;;13.50;99.90;;;;;;6119722;23;20034;-82
2023/10/15 06:05:01;;;;;;;36.25;22.30;;;13.60;99.90;;;;;;6118831;23;20022;-82
2023/10/15 06:08:05;;;;;;;43.05;21.70;;;13.50;99.90;;;;;;6104346;23;20097;-81
2023/10/15 06:10:58;;;;;;;;;;;13.50;99.90;;;;;;5996147;23;20122;-80
2023/10/15 06:13:48;;;;;;;34.00;23.63;;;13.50;99.90;;;;;;5975763;24;19997;-80
2023/10/15 06:16:22;;;;;;;21.83;12.65;;;13.60;99.90;;;;;;5986331;24;20128;-79
2023/10/15 06:18:51;;;;;;;29.42;15.65;;;13.90;99.90;;;;;;5975314;23;20020;-82
2023/10/15 06:21:27;;;;;;;17.85;12.52;;;14.10;99.90;;;;;;5976378;23;20032;-81
2023/10/15 06:24:06;;;;;;;17.00;11.20;;;14.20;99.90;;;;;;5984863;23;20051;-80
2023/10/15 06:26:39;;;;;;;13.25;9.13;;;14.30;99.90;;;;;;5976244;24;20024;-80
2023/10/15 06:29:22;;;;;;;9.32;6.03;;;14.40;99.90;;;;;;5970750;23;20035;-80
2023/10/15 06:31:56;;;;;;;6.55;3.88;;;14.50;99.90;;;;;;5967412;24;20093;-82
2023/10/15 06:34:29;;;;;;;8.02;4.65;;;14.60;99.90;;;;;;6126130;23;20021;-81
2023/10/15 06:40:19;;;;;;;6.30;4.05;;;14.70;99.90;;;;;;6097231;23;20450;-81
2023/10/15 06:43:03;;;;;;;6.53;4.25;;;14.60;99.90;;;;;;6169328;23;20023;-81
2023/10/15 06:45:54;;;;;;;6.38;4.60;;;14.70;99.90;;;;;;6163767;23;20474;-80
2023/10/15 06:51:54;;;;;;;8.55;4.97;;;14.70;99.90;;;;;;6108425;23;20101;-82
2023/10/15 06:54:57;;;;;;;19.75;11.93;;;14.60;99.90;;;;;;6126767;23;20413;-81
2023/10/15 07:04:50;;;;;;;20.05;6.80;;;14.70;99.90;;;;;;6062860;23;20033;-81
2023/10/15 07:07:56;;;;;;;6.97;4.15;;;14.80;99.90;;;;;;6012884;23;20023;-83
2023/10/15 07:10:45;;;;;;;9.75;5.55;;;14.70;99.90;;;;;;6027873;23;20023;-80
2023/10/15 08:01:08;;;;;;;3.78;1.90;;;14.50;99.90;;;;;;5872153;24;20036;-79
2023/10/15 08:06:57;;;;;;;5.05;2.08;;;14.70;99.90;;;;;;5914706;24;20032;-80
2023/10/15 08:09:42;;;;;;;;;;;;;;;;;;;;;
2023/10/15 08:12:41;;;;;;;4.15;2.20;;;14.80;1.00;;;;;;5976837;24;20032;-79
2023/10/15 08:15:38;;;;;;;;;;;;;;;;;;;;;
2023/10/15 08:18:31;;;;;;;4.32;2.03;;;14.60;99.90;;;;;;6034579;23;20033;-80
2023/10/15 08:21:01;;;;;;;3.80;1.77;;;14.60;99.90;;;;;;6037168;23;20027;-81
2023/10/15 08:23:33;;;;;;;9.27;3.15;;;14.70;1.00;;;;;;6093996;23;20469;-81
2023/10/15 08:26:01;;;;;;;9.45;2.70;;;14.40;1.00;;;;;;6125879;23;20043;-80
2023/10/15 08:32:26;;;;;;;;;;;;;;;;;;;;;
2023/10/15 08:45:58;;;;;;;27.73;18.40;;;14.70;99.90;;;;;;6027996;23;20023;-87
2023/10/15 08:52:21;;;;;;;35.55;18.58;;;14.50;1.00;;;;;;6243326;22;20427;-84
2023/10/15 08:54:50;;;;;;;4.32;2.38;;;14.50;1.00;;;;;;6278465;22;20103;-83
2023/10/15 08:57:36;;;;;;;6.70;3.22;;;14.50;99.90;;;;;;6263798;22;20671;-84
2023/10/15 09:00:25;;;;;;;6.15;4.03;;;14.50;99.90;;;;;;6243843;23;20039;-80
2023/10/15 09:03:23;;;;;;;5.53;2.45;;;14.60;99.90;;;;;;6211645;23;20027;-83
2023/10/15 09:06:11;;;;;;;7.57;5.15;;;14.60;1.00;;;;;;6243668;22;20024;-79
2023/10/15 09:08:41;;;;;;;5.45;2.05;;;14.30;1.00;;;;;;6234754;23;20638;-83
2023/10/15 09:11:10;;;;;;;6.00;2.97;;;14.20;1.00;;;;;;6241335;23;20024;-80
2023/10/15 09:13:40;;;;;;;6.32;3.13;;;14.10;99.90;;;;;;6246368;22;20020;-79
2023/10/15 09:16:09;;;;;;;3.88;2.40;;;13.90;1.00;;;;;;6265633;22;20012;-78
2023/10/15 09:18:37;;;;;;;4.15;1.88;;;13.70;1.00;;;;;;6245881;22;20020;-78
2023/10/15 09:21:05;;;;;;;9.05;2.65;;;13.60;1.00;;;;;;6261322;22;20016;-79
2023/10/15 09:23:39;;;;;;;6.28;2.70;;;13.50;1.00;;;;;;6275247;22;20023;-79
2023/10/15 09:26:09;;;;;;;4.32;1.80;;;13.40;1.90;;;;;;6243591;23;20024;-77
2023/10/15 09:28:39;;;;;;;10.25;2.67;;;13.40;99.90;;;;;;6235010;22;20354;-78
2023/10/15 09:31:09;;;;;;;4.55;2.70;;;13.50;1.00;;;;;;6242889;23;20456;-77
2023/10/15 09:33:38;;;;;;;7.32;3.28;;;13.60;45.80;;;;;;6244526;23;20416;-79
2023/10/15 09:36:07;;;;;;;6.47;3.35;;;13.70;1.00;;;;;;6240789;23;20025;-78
2023/10/15 09:38:54;;;;;;;4.47;2.70;;;13.80;99.90;;;;;;6232213;23;20035;-78
2023/10/15 09:41:25;;;;;;;4.82;2.90;;;13.90;99.90;;;;;;6240798;23;20034;-77
2023/10/15 09:43:57;;;;;;;5.57;3.38;;;14.10;1.00;;;;;;6250813;23;20078;-78
2023/10/15 09:46:26;;;;;;;13.65;7.95;;;14.10;1.00;;;;;;6253686;23;20016;-80
2023/10/15 09:48:54;;;;;;;4.53;2.72;;;14.10;1.00;;;;;;6239630;23;20051;-80
2023/10/15 09:51:23;;;;;;;5.32;2.92;;;14.00;60.60;;;;;;6244982;23;20039;-81
2023/10/15 09:53:52;;;;;;;37.42;24.90;;;13.90;1.00;;;;;;6247597;23;20016;-80
2023/10/15 09:56:21;;;;;;;7.53;4.03;;;14.10;99.90;;;;;;6234233;23;20020;-80
2023/10/15 09:58:49;;;;;;;8.45;4.13;;;14.20;1.00;;;;;;6244023;22;20479;-79
2023/10/15 10:01:26;;;;;;;7.20;2.92;;;14.40;1.00;;;;;;6261737;23;20008;-81
2023/10/15 10:04:27;;;;;;;4.30;2.13;;;14.60;99.90;;;;;;6216533;23;20030;-79
2023/10/15 10:07:27;;;;;;;4.20;1.85;;;14.60;99.90;;;;;;6243830;22;20030;-81
2023/10/15 10:10:17;;;;;;;5.50;2.72;;;14.50;1.00;;;;;;6238890;23;20020;-80
2023/10/15 10:13:04;;;;;;;5.53;2.58;;;14.20;1.00;;;;;;6179916;23;20046;-79
2023/10/15 10:15:42;;;;;;;3.72;2.28;;;14.30;1.00;;;;;;6236576;23;20249;-82
2023/10/15 10:18:14;;;;;;;4.60;1.90;;;14.00;99.90;;;;;;6250465;22;20047;-81
2023/10/15 10:20:41;;;;;;;4.93;2.22;;;13.80;1.00;;;;;;6248573;23;20078;-80
2023/10/15 10:23:10;;;;;;;7.82;2.70;;;14.00;99.90;;;;;;6261047;23;20020;-82
2023/10/15 10:25:40;;;;;;;4.78;2.72;;;14.10;1.00;;;;;;6271869;22;20403;-80
2023/10/15 10:28:10;;;;;;;5.40;2.58;;;14.00;99.90;;;;;;6236487;23;20012;-80
2023/10/15 10:30:39;;;;;;;3.35;2.10;;;14.00;57.50;;;;;;6243510;23;20471;-83
2023/10/15 10:33:07;;;;;;;3.55;2.00;;;14.00;1.00;;;;;;6244005;23;20020;-82
2023/10/15 10:35:46;;;;;;;4.88;2.42;;;14.10;1.00;;;;;;6235741;23;20020;-83
2023/10/15 10:38:19;;;;;;;6.35;2.63;;;14.20;1.00;;;;;;6252548;22;20483;-84
2023/10/15 10:40:49;;;;;;;6.72;2.90;;;14.40;1.00;;;;;;6254489;23;20047;-84
2023/10/15 10:43:21;;;;;;;7.80;3.30;;;14.40;1.00;;;;;;6263763;23;20016;-83
2023/10/15 10:45:56;;;;;;;6.47;3.33;;;14.50;99.90;;;;;;6246302;23;20023;-81
2023/10/15 10:48:25;;;;;;;9.68;5.05;;;14.70;99.90;;;;;;6232891;23;20020;-85
2023/10/15 10:51:18;;;;;;;21.38;14.32;;;14.80;99.90;;;;;;6245178;23;20040;-83
2023/10/15 10:54:25;;;;;;;8.85;4.45;;;14.80;99.90;;;;;;6236864;23;20071;-84
2023/10/15 10:57:00;;;;;;;9.80;3.00;;;14.90;99.90;;;;;;6239693;22;20111;-83
2023/10/15 10:59:29;;;;;;;8.13;2.33;;;14.90;1.00;;;;;;6244905;23;20024;-82
2023/10/15 11:01:57;;;;;;;4.93;2.28;;;14.90;99.90;;;;;;6253617;23;20095;-85
2023/10/15 11:04:25;;;;;;;4.75;1.80;;;14.80;99.90;;;;;;6243366;23;20016;-82
2023/10/15 11:06:54;;;;;;;7.40;3.25;;;14.70;1.00;;;;;;6266914;22;20089;-83
2023/10/15 11:09:22;;;;;;;5.45;3.45;;;14.60;99.90;;;;;;6266263;23;20024;-81
2023/10/15 11:11:52;;;;;;;12.02;4.47;;;14.50;1.00;;;;;;6264485;23;20094;-82
2023/10/15 11:14:24;;;;;;;10.23;5.57;;;14.40;1.00;;;;;;6273640;23;20043;-82
2023/10/15 11:16:52;;;;;;;13.88;7.65;;;14.40;1.00;;;;;;6260089;22;20012;-83
2023/10/15 11:19:21;;;;;;;11.23;4.65;;;14.30;99.90;;;;;;6237141;23;20551;-82
2023/10/15 11:21:50;;;;;;;12.27;4.90;;;14.20;99.90;;;;;;6249339;22;20045;-83
2023/10/15 11:24:23;;;;;;;7.50;4.60;;;14.10;99.90;;;;;;6236221;23;20027;-85
2023/10/15 11:26:54;;;;;;;7.55;3.75;;;14.10;99.90;;;;;;6252600;22;20040;-83
2023/10/15 11:29:23;;;;;;;7.63;3.58;;;14.20;1.00;;;;;;6241739;23;20020;-80
2023/10/15 11:31:55;;;;;;;6.60;3.17;;;14.20;1.00;;;;;;6269297;22;20344;-82
2023/10/15 11:34:28;;;;;;;6.05;3.03;;;14.30;1.00;;;;;;6248876;23;20039;-82
2023/10/15 11:36:57;;;;;;;8.68;4.45;;;14.30;1.00;;;;;;6260339;22;20035;-81
2023/10/15 11:39:29;;;;;;;8.80;4.57;;;14.40;1.00;;;;;;6253667;23;20019;-82
2023/10/15 11:41:57;;;;;;;7.07;3.75;;;14.40;1.00;;;;;;6257898;23;20020;-84
2023/10/15 11:44:30;;;;;;;6.15;3.53;;;14.50;99.90;;;;;;6241311;23;20034;-82
2023/10/15 11:46:59;;;;;;;6.43;3.45;;;14.40;99.90;;;;;;6250703;22;20074;-84
2023/10/15 11:49:42;;;;;;;9.30;3.97;;;14.40;1.00;;;;;;6267606;23;20012;-84
2023/10/15 11:52:14;;;;;;;10.85;4.32;;;14.40;1.00;;;;;;6260726;23;20047;-82
2023/10/15 11:54:49;;;;;;;13.10;4.47;;;14.40;1.00;;;;;;6238517;23;20436;-84
2023/10/15 11:57:22;;;;;;;8.73;3.03;;;14.40;1.00;;;;;;6246760;22;20095;-84
2023/10/15 11:59:50;;;;;;;5.93;2.92;;;14.30;99.90;;;;;;6243303;23;20471;-84
2023/10/15 12:02:18;;;;;;;11.10;4.03;;;14.30;99.90;;;;;;6231856;23;20024;-84
2023/10/15 12:04:51;;;;;;;9.23;4.70;;;14.30;1.00;;;;;;6243176;22;20038;-83
2023/10/15 12:07:21;;;;;;;11.60;4.78;;;14.30;1.00;;;;;;6232645;22;20035;-82
2023/10/15 12:09:50;;;;;;;7.75;4.70;;;14.20;1.00;;;;;;6245177;22;20020;-85
2023/10/15 12:12:19;;;;;;;5.47;2.78;;;14.10;53.50;;;;;;6231305;23;20099;-83
2023/10/15 12:14:46;;;;;;;5.93;2.30;;;13.80;1.00;;;;;;6242601;23;20082;-84
2023/10/15 12:17:15;;;;;;;7.85;3.20;;;13.50;99.90;;;;;;6229778;22;20020;-82
2023/10/15 12:19:44;;;;;;;6.53;3.20;;;13.50;99.90;;;;;;6242470;22;20353;-84
2023/10/15 12:22:14;;;;;;;5.25;3.00;;;13.50;1.00;;;;;;6243858;23;20024;-84
2023/10/15 12:24:42;;;;;;;7.57;3.35;;;13.50;99.90;;;;;;6245420;22;20078;-85
2023/10/15 12:27:14;;;;;;;6.80;3.05;;;13.20;1.00;;;;;;6219976;22;20017;-82
2023/10/15 12:30:03;;;;;;;9.13;4.30;;;13.20;1.00;;;;;;6250457;23;20046;-82
2023/10/15 12:32:43;;;;;;;10.32;3.88;;;13.30;80.90;;;;;;6240308;23;20095;-86
2023/10/15 12:35:13;;;;;;;10.13;5.63;;;13.50;1.00;;;;;;6246759;23;20094;-85
2023/10/15 12:37:49;;;;;;;16.58;7.55;;;13.60;99.90;;;;;;6245694;22;20031;-83
2023/10/15 12:40:23;;;;;;;7.28;3.80;;;13.60;61.50;;;;;;6255504;23;20078;-84
2023/10/15 12:42:55;;;;;;;6.93;4.07;;;13.60;99.90;;;;;;6244429;23;20020;-84
2023/10/15 12:45:24;;;;;;;8.10;3.72;;;13.60;99.90;;;;;;6245834;23;20024;-83
2023/10/15 12:47:52;;;;;;;10.30;4.60;;;13.70;99.90;;;;;;6251949;22;20154;-82
2023/10/15 12:50:20;;;;;;;7.90;4.55;;;13.80;99.90;;;;;;6227191;22;20028;-85
2023/10/15 12:52:48;;;;;;;8.98;4.80;;;13.70;97.70;;;;;;6252676;22;20050;-83
2023/10/15 12:55:18;;;;;;;9.40;4.55;;;13.70;1.00;;;;;;6294152;22;20337;-84
2023/10/15 12:57:47;;;;;;;12.27;4.63;;;13.70;1.00;;;;;;6266999;22;20038;-84
2023/10/15 13:00:18;;;;;;;9.82;4.85;;;13.70;1.00;;;;;;6262082;22;20019;-80
2023/10/15 13:02:49;;;;;;;11.65;4.28;;;13.80;1.00;;;;;;6247636;22;20397;-81
2023/10/15 13:05:17;;;;;;;6.95;3.05;;;13.70;99.90;;;;;;6292208;22;20024;-81
2023/10/15 13:07:45;;;;;;;6.63;4.00;;;13.60;99.90;;;;;;6249754;22;20183;-78
2023/10/15 13:10:13;;;;;;;6.82;2.90;;;13.50;1.00;;;;;;6287059;22;20026;-82
2023/10/15 13:12:41;;;;;;;7.85;2.85;;;13.50;1.00;;;;;;6247444;22;20020;-79
2023/10/15 13:15:10;;;;;;;9.05;3.03;;;13.30;1.00;;;;;;6250917;22;20388;-83
2023/10/15 13:17:39;;;;;;;4.40;1.95;;;13.00;99.90;;;;;;6287012;22;20460;-83
2023/10/15 13:20:11;;;;;;;4.38;1.80;;;12.80;99.90;;;;;;6289262;22;20023;-81
2023/10/15 13:22:39;;;;;;;4.25;1.73;;;12.60;76.80;;;;;;6256084;22;20071;-81
2023/10/15 13:25:08;;;;;;;7.93;4.22;;;12.60;99.90;;;;;;6251301;22;20193;-82
2023/10/15 13:27:36;;;;;;;6.53;2.30;;;12.60;99.90;;;;;;6246849;22;20023;-80
2023/10/15 13:30:04;;;;;;;5.32;2.42;;;12.40;54.30;;;;;;6276266;22;20020;-83
2023/10/15 13:32:32;;;;;;;5.40;2.75;;;12.50;99.90;;;;;;6246849;22;20024;-82
2023/10/15 13:35:01;;;;;;;5.53;2.72;;;12.70;99.90;;;;;;6246957;22;20126;-81
2023/10/15 13:37:30;;;;;;;8.07;2.75;;;12.80;99.90;;;;;;6247431;22;20023;-80
2023/10/15 13:39:57;;;;;;;9.93;4.85;;;12.80;99.90;;;;;;6248416;22;20019;-79
2023/10/15 13:42:25;;;;;;;11.98;4.90;;;12.90;99.90;;;;;;6248192;22;20047;-80
2023/10/15 13:44:52;;;;;;;11.43;5.47;;;12.90;99.90;;;;;;6279113;22;20028;-83
2023/10/15 13:47:20;;;;;;;8.13;3.15;;;13.00;99.90;;;;;;6246956;22;20027;-80
2023/10/15 13:49:47;;;;;;;8.93;4.68;;;12.90;99.90;;;;;;6281795;22;20020;-81
2023/10/15 13:52:16;;;;;;;7.78;3.30;;;12.80;99.90;;;;;;6284896;22;20074;-80
2023/10/15 13:54:44;;;;;;;5.95;2.70;;;12.80;99.90;;;;;;6274453;22;20488;-80
2023/10/15 13:57:11;;;;;;;7.63;3.20;;;12.80;99.90;;;;;;6278020;22;20032;-79
2023/10/15 13:59:40;;;;;;;11.90;5.15;;;12.80;99.90;;;;;;6279662;22;20052;-81
2023/10/15 14:02:12;;;;;;;10.85;5.88;;;12.80;99.90;;;;;;6248665;22;20031;-80
2023/10/15 14:04:39;;;;;;;8.13;4.55;;;12.70;1.00;;;;;;6285392;22;20016;-80
2023/10/15 14:07:07;;;;;;;9.23;5.57;;;12.70;1.00;;;;;;6290890;22;20019;-83
2023/10/15 14:09:38;;;;;;;8.77;5.00;;;12.60;99.90;;;;;;6289146;22;20035;-84
2023/10/15 14:12:06;;;;;;;10.05;4.30;;;12.50;1.00;;;;;;6288435;22;20051;-79
2023/10/15 14:14:34;;;;;;;12.43;5.32;;;12.40;1.00;;;;;;6254620;22;20042;-82
2023/10/15 14:17:03;;;;;;;8.45;5.32;;;12.20;1.00;;;;;;6261046;22;20027;-80
2023/10/15 14:19:31;;;;;;;13.95;7.47;;;12.10;1.00;;;;;;6298544;22;20082;-80
2023/10/15 14:21:58;;;;;;;10.10;5.72;;;12.00;99.90;;;;;;6291863;22;20034;-78
2023/10/15 14:24:26;;;;;;;10.23;5.63;;;11.90;1.00;;;;;;6293791;22;20034;-80
2023/10/15 14:26:55;;;;;;;11.48;6.10;;;11.90;1.00;;;;;;6302176;22;20015;-80
2023/10/15 14:29:23;;;;;;;10.05;5.35;;;11.90;1.00;;;;;;6272360;22;20028;-78
2023/10/15 14:31:50;;;;;;;10.75;5.00;;;12.00;1.00;;;;;;6307789;22;20034;-78
2023/10/15 14:34:18;;;;;;;14.02;4.90;;;12.00;1.00;;;;;;6310367;22;20022;-78
2023/10/15 14:36:48;;;;;;;9.25;5.35;;;12.00;1.00;;;;;;6297804;22;20020;-79
2023/10/15 14:39:18;;;;;;;11.73;4.07;;;11.90;1.00;;;;;;6296958;22;20075;-80
2023/10/15 14:41:48;;;;;;;10.88;4.50;;;11.90;1.00;;;;;;6274929;22;20085;-79
2023/10/15 14:44:16;;;;;;;10.82;5.57;;;11.90;1.00;;;;;;6280960;22;20027;-79
2023/10/15 14:46:47;;;;;;;7.82;4.00;;;11.90;1.00;;;;;;6246386;22;20039;-77
2023/10/15 14:49:15;;;;;;;8.32;4.10;;;12.00;99.90;;;;;;6284627;22;20036;-80
2023/10/15 14:51:45;;;;;;;10.90;5.10;;;11.90;99.90;;;;;;6276765;22;20031;-80
2023/10/15 14:54:13;;;;;;;10.00;3.50;;;11.90;1.00;;;;;;6278526;22;20031;-80
2023/10/15 14:56:45;;;;;;;8.73;4.07;;;11.80;99.90;;;;;;6281300;22;20073;-80
2023/10/15 14:59:17;;;;;;;8.75;3.85;;;11.70;99.90;;;;;;6250059;22;20027;-81
2023/10/15 15:01:44;;;;;;;11.45;5.15;;;11.60;99.90;;;;;;6286317;22;20012;-80
2023/10/15 15:04:18;;;;;;;9.50;5.60;;;11.60;99.90;;;;;;6287026;22;20099;-80
2023/10/15 15:06:46;;;;;;;11.98;6.30;;;11.50;1.00;;;;;;6249351;22;20471;-79
2023/10/15 15:09:13;;;;;;;11.63;6.80;;;11.40;1.00;;;;;;6281439;22;20043;-79
2023/10/15 15:11:41;;;;;;;10.68;5.70;;;11.40;99.90;;;;;;6282220;22;20054;-81
2023/10/15 15:14:10;;;;;;;14.60;7.75;;;11.40;1.00;;;;;;6283129;22;20050;-79
2023/10/15 15:16:39;;;;;;;14.60;8.45;;;11.40;1.00;;;;;;6285321;22;20015;-83
2023/10/15 15:19:07;;;;;;;10.25;7.47;;;11.50;99.90;;;;;;6247709;22;20012;-80
2023/10/15 15:21:34;;;;;;;13.10;7.28;;;11.50;1.00;;;;;;6246560;22;20046;-79
2023/10/15 15:24:02;;;;;;;12.85;7.90;;;11.60;1.00;;;;;;6275345;22;20893;-80
2023/10/15 15:26:30;;;;;;;13.02;7.18;;;11.60;99.90;;;;;;6278233;22;20467;-80
2023/10/15 15:28:58;;;;;;;18.20;8.98;;;11.50;99.90;;;;;;6280499;22;20020;-79
2023/10/15 15:31:25;;;;;;;13.38;7.70;;;11.50;99.90;;;;;;6284077;22;20016;-78
2023/10/15 15:33:54;;;;;;;18.58;11.48;;;11.40;1.00;;;;;;6285841;22;20043;-79
2023/10/15 15:36:22;;;;;;;20.58;11.32;;;11.30;99.90;;;;;;6276251;22;20019;-78
2023/10/15 15:38:49;;;;;;;21.48;11.98;;;11.20;1.00;;;;;;6277602;22;20203;-79
2023/10/15 15:41:17;;;;;;;19.38;10.60;;;11.20;1.00;;;;;;6280451;22;20024;-78
2023/10/15 15:43:44;;;;;;;22.17;9.30;;;11.10;1.00;;;;;;6282354;22;20042;-77
2023/10/15 15:46:13;;;;;;;14.18;8.60;;;11.20;12.20;;;;;;6283546;22;20023;-78
2023/10/15 15:48:41;;;;;;;14.70;8.50;;;11.10;1.00;;;;;;6247354;22;20102;-78
2023/10/15 15:51:11;;;;;;;14.35;8.20;;;11.10;1.00;;;;;;6276620;22;20095;-78
2023/10/15 15:53:39;;;;;;;20.83;9.02;;;11.10;1.00;;;;;;6245278;22;20517;-80
2023/10/15 15:56:08;;;;;;;16.95;9.27;;;11.10;1.00;;;;;;6280413;22;20457;-78
2023/10/15 15:58:36;;;;;;;19.05;9.85;;;11.10;1.00;;;;;;6283869;22;20011;-78
2023/10/15 16:01:04;;;;;;;20.63;10.45;;;11.10;1.00;;;;;;6288622;22;20020;-80
2023/10/15 16:03:32;;;;;;;20.30;12.15;;;11.10;1.00;;;;;;6279698;22;20034;-79
2023/10/15 16:06:03;;;;;;;25.17;12.98;;;11.10;99.90;;;;;;6279563;22;20077;-77
2023/10/15 16:08:33;;;;;;;17.63;11.50;;;11.00;99.90;;;;;;6278167;22;20035;-78
2023/10/15 16:11:00;;;;;;;19.63;13.02;;;11.00;99.90;;;;;;6297954;22;20004;-81
2023/10/15 16:13:28;;;;;;;22.92;13.15;;;11.00;99.90;;;;;;6307004;22;20015;-77
2023/10/15 16:15:55;;;;;;;22.52;12.82;;;11.00;99.90;;;;;;6304031;22;20110;-77
2023/10/15 16:18:23;;;;;;;15.20;9.10;;;10.90;99.90;;;;;;6247643;22;20043;-79
2023/10/15 16:20:55;;;;;;;21.45;13.20;;;10.90;99.90;;;;;;6277129;22;20020;-79
2023/10/15 16:23:22;;;;;;;25.33;15.27;;;10.90;99.90;;;;;;6279750;22;20040;-79
2023/10/15 16:25:52;;;;;;;19.52;12.18;;;10.80;99.90;;;;;;6280895;22;20030;-77
2023/10/15 16:28:19;;;;;;;24.25;13.20;;;10.80;99.90;;;;;;6284599;22;20022;-80
2023/10/15 16:30:49;;;;;;;17.58;11.82;;;10.80;99.90;;;;;;6274857;22;20102;-81
2023/10/15 16:33:17;;;;;;;19.98;10.73;;;10.80;99.90;;;;;;6258259;22;20075;-77
2023/10/15 16:35:47;;;;;;;21.30;13.05;;;10.80;99.90;;;;;;6297301;22;20015;-80
2023/10/15 16:38:14;;;;;;;20.75;11.43;;;10.80;99.90;;;;;;6284229;22;20085;-79
2023/10/15 16:40:42;;;;;;;18.15;10.88;;;10.80;99.90;;;;;;6245362;22;20073;-82
2023/10/15 16:43:11;;;;;;;25.83;15.27;;;10.80;99.90;;;;;;6246961;22;20019;-81
2023/10/15 16:45:40;;;;;;;21.58;12.77;;;10.90;99.90;;;;;;6275194;22;20073;-79
2023/10/15 16:48:10;;;;;;;22.60;13.20;;;10.80;99.90;;;;;;6275660;22;20077;-79
2023/10/15 16:50:40;;;;;;;22.67;12.73;;;10.80;99.90;;;;;;6282226;22;20019;-80
2023/10/15 16:53:09;;;;;;;25.48;16.20;;;10.70;99.90;;;;;;6289974;22;20079;-82
2023/10/15 16:55:37;;;;;;;22.73;14.23;;;10.70;99.90;;;;;;6292931;22;20094;-80
2023/10/15 16:58:05;;;;;;;24.13;15.90;;;10.70;99.90;;;;;;6284732;22;20119;-79
2023/10/15 17:00:34;;;;;;;23.25;14.27;;;10.70;99.90;;;;;;6247406;22;20522;-76
2023/10/15 17:03:03;;;;;;;19.45;13.27;;;10.60;99.90;;;;;;6276340;22;20073;-80
2023/10/15 17:05:31;;;;;;;22.02;13.90;;;10.60;99.90;;;;;;6280178;22;20085;-81
2023/10/15 17:08:00;;;;;;;22.17;14.10;;;10.60;99.90;;;;;;6280797;22;20091;-80
2023/10/15 17:10:28;;;;;;;18.80;12.48;;;10.50;99.90;;;;;;6284422;22;20011;-79
2023/10/15 17:12:56;;;;;;;20.83;11.85;;;10.60;99.90;;;;;;6282810;22;20081;-82
2023/10/15 17:15:23;;;;;;;17.20;11.60;;;10.60;99.90;;;;;;6246725;22;20069;-80
2023/10/15 17:17:52;;;;;;;21.08;11.82;;;10.50;99.90;;;;;;6279230;22;20031;-80
2023/10/15 17:20:22;;;;;;;15.70;11.38;;;10.50;99.90;;;;;;6282732;22;20472;-82
2023/10/15 17:22:50;;;;;;;17.17;9.65;;;10.50;99.90;;;;;;6282336;22;20011;-80
2023/10/15 17:25:18;;;;;;;16.27;9.82;;;10.50;99.90;;;;;;6246216;22;20035;-80
2023/10/15 17:27:45;;;;;;;16.02;10.32;;;10.50;99.90;;;;;;6245744;22;20034;-81
2023/10/15 17:30:16;;;;;;;16.60;9.68;;;10.50;99.90;;;;;;6275063;22;20184;-79
2023/10/15 17:32:44;;;;;;;13.70;9.00;;;10.50;99.90;;;;;;6246461;22;20020;-80
2023/10/15 17:35:13;;;;;;;14.27;9.68;;;10.30;99.90;;;;;;6279999;22;20098;-79
2023/10/15 17:37:40;;;;;;;12.73;8.82;;;10.30;99.90;;;;;;6282087;22;20025;-80
2023/10/15 17:40:09;;;;;;;15.02;11.40;;;10.20;99.90;;;;;;6282726;22;20008;-80
2023/10/15 17:42:38;;;;;;;18.60;12.30;;;10.10;99.90;;;;;;6272970;22;20020;-79
2023/10/15 17:45:07;;;;;;;16.73;11.02;;;10.10;99.90;;;;;;6274319;22;20038;-80
2023/10/15 17:47:35;;;;;;;20.45;11.32;;;10.10;99.90;;;;;;6276796;22;20031;-79
2023/10/15 17:50:03;;;;;;;21.35;13.48;;;10.20;99.90;;;;;;6279400;22;20024;-79
2023/10/15 17:52:33;;;;;;;26.95;17.48;;;10.20;99.90;;;;;;6246253;22;20020;-80
2023/10/15 17:55:01;;;;;;;29.63;19.08;;;10.20;99.90;;;;;;6282917;22;20008;-79
2023/10/15 17:57:28;;;;;;;29.90;18.60;;;10.30;99.90;;;;;;6246792;22;20107;-79
2023/10/15 17:59:56;;;;;;;25.23;17.35;;;10.40;99.90;;;;;;6274727;22;20027;-79
2023/10/15 18:02:23;;;;;;;27.00;17.40;;;10.30;99.90;;;;;;6277243;22;20499;-81
2023/10/15 18:04:51;;;;;;;28.98;17.67;;;10.30;99.90;;;;;;6281452;22;20126;-79
2023/10/15 18:07:18;;;;;;;24.70;18.08;;;10.30;99.90;;;;;;6283284;22;20022;-79
2023/10/15 18:09:47;;;;;;;22.55;15.38;;;10.30;99.90;;;;;;6271828;22;20102;-79
2023/10/15 18:12:15;;;;;;;26.33;15.68;;;10.30;99.90;;;;;;6273826;22;20055;-81
2023/10/15 18:14:42;;;;;;;23.70;14.88;;;10.30;99.90;;;;;;6276581;22;20484;-79
2023/10/15 18:17:11;;;;;;;21.50;14.38;;;10.20;99.90;;;;;;6244625;22;20027;-81
2023/10/15 18:19:39;;;;;;;22.15;17.50;;;10.20;99.90;;;;;;6245869;22;20077;-79
2023/10/15 18:22:07;;;;;;;31.77;22.10;;;10.20;99.90;;;;;;6283052;22;20023;-80
2023/10/15 18:24:34;;;;;;;42.60;27.65;;;10.10;99.90;;;;;;6282494;22;20038;-79
2023/10/15 18:27:04;;;;;;;40.63;28.02;;;10.20;99.90;;;;;;6279212;22;20024;-79
2023/10/15 18:29:31;;;;;;;38.78;26.35;;;10.20;99.90;;;;;;6247835;22;20077;-80
2023/10/15 18:32:03;;;;;;;37.58;28.13;;;10.10;99.90;;;;;;6260321;22;20027;-79
2023/10/15 18:34:30;;;;;;;42.70;29.90;;;10.10;99.90;;;;;;6294646;22;20320;-79
2023/10/15 18:36:58;;;;;;;45.90;31.77;;;10.10;99.90;;;;;;6249973;22;20043;-79
2023/10/15 18:39:26;;;;;;;48.92;32.65;;;10.10;99.90;;;;;;6276870;22;20059;-80
2023/10/15 18:41:53;;;;;;;47.17;33.58;;;10.10;99.90;;;;;;6278475;22;20337;-79
2023/10/15 18:44:23;;;;;;;44.35;29.05;;;10.10;99.90;;;;;;6246059;22;20163;-79
2023/10/15 18:47:20;;;;;;;40.80;28.23;;;10.10;99.90;;;;;;6283170;22;20310;-85
2023/10/15 18:50:00;;;;;;;43.33;28.60;;;10.00;99.90;;;;;;6263691;22;20941;-82
2023/10/15 18:52:39;;;;;;;47.58;28.27;;;10.00;99.90;;;;;;6228408;22;20011;-87
2023/10/15 18:58:26;;;;;;;39.23;25.23;;;10.10;99.90;;;;;;6249489;22;20020;-84
2023/10/15 19:01:01;;;;;;;35.47;21.42;;;10.10;99.90;;;;;;6277648;22;20253;-86
2023/10/15 19:03:29;;;;;;;36.33;21.13;;;10.10;99.90;;;;;;6280023;22;20020;-86
2023/10/15 19:05:57;;;;;;;37.80;23.77;;;10.10;99.90;;;;;;6277572;22;20034;-79
2023/10/15 19:08:25;;;;;;;49.88;26.73;;;10.10;99.90;;;;;;6279713;22;20034;-81
2023/10/15 19:10:53;;;;;;;43.20;23.73;;;10.00;99.90;;;;;;6284061;22;20016;-80
2023/10/15 19:13:21;;;;;;;36.10;19.95;;;10.00;99.90;;;;;;6249328;22;20033;-81
2023/10/15 19:15:55;;;;;;;37.45;20.58;;;9.90;99.90;;;;;;6246445;22;20024;-79
2023/10/15 19:18:24;;;;;;;35.38;20.15;;;9.90;99.90;;;;;;6246851;22;20024;-80
2023/10/15 19:20:52;;;;;;;40.63;21.45;;;9.90;99.90;;;;;;6247003;22;20403;-80
2023/10/15 19:23:20;;;;;;;38.88;20.25;;;9.90;99.90;;;;;;6280294;22;20443;-79
2023/10/15 19:25:47;;;;;;;33.25;18.45;;;9.80;99.90;;;;;;6255896;22;20027;-79
2023/10/15 19:28:15;;;;;;;33.65;18.35;;;9.80;99.90;;;;;;6258182;22;20051;-80
2023/10/15 19:30:43;;;;;;;30.15;16.85;;;9.90;99.90;;;;;;6249195;22;20100;-80
2023/10/15 19:33:10;;;;;;;31.50;17.67;;;9.80;99.90;;;;;;6250391;22;20027;-79
2023/10/15 19:35:39;;;;;;;35.58;18.65;;;9.80;99.90;;;;;;6279371;22;20114;-79
2023/10/15 19:38:08;;;;;;;39.15;20.80;;;9.80;99.90;;;;;;6281241;22;20055;-81
2023/10/15 19:40:36;;;;;;;38.17;21.83;;;9.80;99.90;;;;;;6282730;22;20016;-81